createdAt,value
2018-02-02T00:00:34.602Z,93.31
2018-02-02T00:03:02.910Z,92.64
2018-02-02T00:05:31.369Z,92.46
2018-02-02T00:07:58.910Z,92.57
2018-02-02T00:10:26.498Z,92.07
2018-02-02T00:12:54.051Z,92.59
2018-02-02T00:15:21.585Z,93.20
2018-02-02T00:17:49.130Z,92.53
2018-02-02T00:20:17.625Z,92.13
2018-02-02T00:22:45.241Z,91.90
2018-02-02T00:25:12.788Z,92.55
2018-02-02T00:27:40.331Z,92.35
2018-02-02T00:30:07.869Z,92.37
2018-02-02T00:32:35.401Z,92.60
2018-02-02T00:35:02.957Z,93.29
2018-02-02T00:37:30.506Z,92.67
2018-02-02T00:39:58.158Z,92.82
2018-02-02T00:42:25.693Z,93.13
2018-02-02T00:44:53.253Z,93.15
2018-02-02T00:47:20.837Z,92.55
2018-02-02T00:49:48.382Z,93.46
2018-02-02T00:52:15.930Z,92.84
2018-02-02T00:54:43.525Z,93.46
2018-02-02T00:57:11.841Z,93.12
2018-02-02T00:59:40.282Z,93.69
2018-02-02T01:02:08.634Z,93.52
2018-02-02T01:04:36.178Z,93.71
2018-02-02T01:07:03.723Z,93.43
2018-02-02T01:09:31.352Z,92.85
2018-02-02T01:11:59.032Z,93.47
2018-02-02T01:14:26.671Z,93.77
2018-02-02T01:16:54.262Z,94.27
2018-02-02T01:19:21.819Z,94.78
2018-02-02T01:21:49.467Z,94.70
2018-02-02T01:24:17.018Z,94.83
2018-02-02T01:26:44.558Z,94.75
2018-02-02T01:29:12.952Z,94.60
2018-02-02T01:31:40.498Z,94.92
2018-02-02T01:34:08.874Z,94.41
2018-02-02T01:36:36.417Z,94.28
2018-02-02T01:39:03.972Z,94.44
2018-02-02T01:41:31.522Z,93.83
2018-02-02T01:43:59.139Z,94.03
2018-02-02T01:46:26.707Z,94.49
2018-02-02T01:48:54.306Z,94.51
2018-02-02T01:51:21.849Z,94.72
2018-02-02T01:53:49.410Z,94.36
2018-02-02T01:56:17.766Z,94.14
2018-02-02T01:58:45.427Z,94.48
2018-02-02T02:01:12.967Z,94.23
2018-02-02T02:03:40.513Z,93.75
2018-02-02T02:06:08.110Z,94.13
2018-02-02T02:08:36.573Z,93.92
2018-02-02T02:11:04.978Z,93.55
2018-02-02T02:13:33.426Z,94.37
2018-02-02T02:16:01.762Z,94.00
2018-02-02T02:18:30.083Z,93.66
2018-02-02T02:20:58.477Z,93.89
2018-02-02T02:23:26.926Z,94.59
2018-02-02T02:25:55.267Z,94.21
2018-02-02T02:28:23.622Z,93.90
2018-02-02T02:30:52.070Z,94.06
2018-02-02T02:33:19.685Z,94.06
2018-02-02T02:35:47.329Z,93.35
2018-02-02T02:38:15.688Z,93.89
2018-02-02T02:40:43.241Z,94.17
2018-02-02T02:43:11.724Z,94.29
2018-02-02T02:45:40.055Z,94.29
2018-02-02T02:48:07.691Z,94.27
2018-02-02T02:50:35.238Z,94.62
2018-02-02T02:53:02.799Z,94.17
2018-02-02T02:55:30.346Z,95.21
2018-02-02T02:57:57.894Z,95.17
2018-02-02T03:00:25.441Z,94.58
2018-02-02T03:02:52.987Z,94.65
2018-02-02T03:05:20.538Z,94.89
2018-02-02T03:07:48.082Z,94.68
2018-02-02T03:10:15.639Z,94.57
2018-02-02T03:12:43.246Z,94.41
2018-02-02T03:15:10.831Z,94.42
2018-02-02T03:17:38.378Z,94.20
2018-02-02T03:20:05.926Z,94.51
2018-02-02T03:22:33.474Z,95.52
2018-02-02T03:25:01.022Z,95.72
2018-02-02T03:27:28.577Z,94.78
2018-02-02T03:29:56.122Z,94.65
2018-02-02T03:32:23.672Z,94.55
2018-02-02T03:34:51.258Z,93.97
2018-02-02T03:37:18.812Z,94.40
2018-02-02T03:39:46.370Z,94.75
2018-02-02T03:42:13.957Z,95.20
2018-02-02T03:44:41.510Z,95.42
2018-02-02T03:47:09.099Z,95.74
2018-02-02T03:49:36.654Z,95.32
2018-02-02T03:52:04.246Z,95.90
2018-02-02T03:54:31.830Z,95.04
2018-02-02T03:56:59.377Z,95.34
2018-02-02T03:59:26.926Z,95.61
2018-02-02T04:01:54.474Z,95.69
2018-02-02T04:04:22.022Z,96.00
2018-02-02T04:06:49.580Z,96.24
2018-02-02T04:09:17.139Z,96.09
2018-02-02T04:11:44.698Z,96.80
2018-02-02T04:14:12.233Z,96.57
2018-02-02T04:16:39.871Z,95.81
2018-02-02T04:19:07.422Z,96.17
2018-02-02T04:21:34.974Z,96.19
2018-02-02T04:24:02.525Z,96.46
2018-02-02T04:26:30.170Z,96.72
2018-02-02T04:28:57.775Z,96.59
2018-02-02T04:31:25.442Z,96.81
2018-02-02T04:33:53.075Z,96.84
2018-02-02T04:36:20.633Z,96.73
2018-02-02T04:38:48.230Z,96.73
2018-02-02T04:41:15.786Z,96.37
2018-02-02T04:43:43.346Z,96.57
2018-02-02T04:46:11.007Z,96.46
2018-02-02T04:48:38.677Z,96.39
2018-02-02T04:51:06.230Z,96.83
2018-02-02T04:53:33.778Z,97.06
2018-02-02T04:56:01.362Z,97.09
2018-02-02T04:58:28.988Z,96.60
2018-02-02T05:00:56.575Z,96.59
2018-02-02T05:03:24.133Z,96.07
2018-02-02T05:05:51.730Z,96.40
2018-02-02T05:08:19.362Z,96.33
2018-02-02T05:10:46.921Z,96.32
2018-02-02T05:13:14.470Z,96.10
2018-02-02T05:15:42.058Z,96.58
2018-02-02T05:18:09.609Z,96.83
2018-02-02T05:20:37.174Z,96.91
2018-02-02T05:23:04.738Z,97.09
2018-02-02T05:25:32.289Z,97.30
2018-02-02T05:27:59.905Z,97.25
2018-02-02T05:30:27.506Z,97.08
2018-02-02T05:32:55.058Z,97.03
2018-02-02T05:35:22.731Z,96.37
2018-02-02T05:37:50.396Z,96.54
2018-02-02T05:40:18.027Z,97.16
2018-02-02T05:42:45.574Z,97.13
2018-02-02T05:45:13.124Z,97.00
2018-02-02T05:47:40.707Z,96.99
2018-02-02T05:50:08.302Z,96.79
2018-02-02T05:52:35.858Z,96.39
2018-02-02T05:55:03.416Z,96.87
2018-02-02T05:57:30.975Z,96.93
2018-02-02T05:59:58.542Z,96.99
2018-02-02T06:02:26.211Z,97.05
2018-02-02T06:04:53.798Z,97.03
2018-02-02T06:07:21.351Z,96.57
2018-02-02T06:09:48.946Z,96.69
2018-02-02T06:12:16.499Z,96.19
2018-02-02T06:14:44.166Z,96.07
2018-02-02T06:17:11.706Z,95.17
2018-02-02T06:19:39.249Z,95.40
2018-02-02T06:22:06.893Z,94.80
2018-02-02T06:24:34.486Z,94.93
2018-02-02T06:27:02.118Z,95.00
2018-02-02T06:29:29.662Z,94.32
2018-02-02T06:31:57.217Z,94.22
2018-02-02T06:34:24.895Z,94.93
2018-02-02T06:37:06.839Z,94.91
2018-02-02T06:39:34.366Z,94.42
2018-02-02T06:42:01.950Z,94.74
2018-02-02T06:44:29.539Z,94.21
2018-02-02T06:46:57.182Z,93.78
2018-02-02T06:49:24.697Z,94.08
2018-02-02T06:51:52.290Z,94.14
2018-02-02T06:54:19.825Z,93.31
2018-02-02T06:56:47.402Z,94.09
2018-02-02T06:59:14.942Z,93.60
2018-02-02T07:01:42.602Z,93.35
2018-02-02T07:04:10.143Z,93.47
2018-02-02T07:06:37.690Z,93.04
2018-02-02T07:09:05.241Z,92.79
2018-02-02T07:11:32.790Z,93.17
2018-02-02T07:14:00.342Z,92.62
2018-02-02T07:16:27.894Z,92.34
2018-02-02T07:18:55.434Z,91.78
2018-02-02T07:21:22.973Z,92.21
2018-02-02T07:23:50.574Z,91.48
2018-02-02T07:26:18.134Z,91.73
2018-02-02T07:28:45.774Z,91.84
2018-02-02T07:31:13.433Z,92.62
2018-02-02T07:33:40.977Z,92.61
2018-02-02T07:36:08.534Z,92.54
2018-02-02T07:38:36.085Z,93.01
2018-02-02T07:41:03.632Z,92.68
2018-02-02T07:43:31.214Z,91.95
2018-02-02T07:45:58.799Z,92.48
2018-02-02T07:48:26.462Z,91.79
2018-02-02T07:50:54.007Z,91.53
2018-02-02T07:53:21.554Z,91.34
2018-02-02T07:55:49.142Z,91.91
2018-02-02T07:58:16.694Z,90.65
2018-02-02T08:03:48.043Z,90.64
2018-02-02T08:06:15.619Z,90.17
2018-02-02T08:08:43.195Z,89.46
2018-02-02T08:11:10.778Z,89.19
2018-02-02T08:13:38.325Z,88.46
2018-02-02T08:16:05.862Z,88.48
2018-02-02T08:18:33.410Z,87.83
2018-02-02T08:21:00.994Z,88.10
2018-02-02T08:23:28.565Z,87.21
2018-02-02T08:25:56.106Z,87.40
2018-02-02T08:28:23.689Z,87.33
2018-02-02T08:30:51.222Z,87.95
2018-02-02T08:33:18.798Z,87.83
2018-02-02T08:35:46.339Z,86.85
2018-02-02T08:38:13.915Z,87.35
2018-02-02T08:40:41.448Z,86.11
2018-02-02T08:43:09.056Z,85.68
2018-02-02T08:45:36.611Z,84.21
2018-02-02T08:48:04.193Z,83.99
2018-02-02T08:50:31.790Z,83.95
2018-02-02T08:52:59.360Z,83.70
2018-02-02T08:55:26.903Z,83.29
2018-02-02T08:57:54.452Z,84.58
2018-02-02T09:00:22.167Z,83.10
2018-02-02T09:02:49.706Z,83.23
2018-02-02T09:05:17.283Z,82.12
2018-02-02T09:07:44.934Z,82.79
2018-02-02T09:10:12.520Z,83.18
2018-02-02T09:12:40.182Z,81.43
2018-02-02T09:15:07.840Z,82.95
2018-02-02T09:17:35.502Z,82.01
2018-02-02T09:20:03.035Z,81.98
2018-02-02T09:22:30.814Z,81.10
2018-02-02T09:24:58.379Z,80.46
2018-02-02T09:27:25.462Z,80.89
2018-02-02T09:29:53.066Z,80.36
2018-02-02T09:32:20.644Z,79.90
2018-02-02T09:34:48.177Z,81.61
2018-02-02T09:37:15.715Z,80.93
2018-02-02T09:39:43.301Z,80.29
2018-02-02T09:42:10.835Z,81.51
2018-02-02T09:44:38.382Z,80.17
2018-02-02T09:47:05.929Z,80.27
2018-02-02T09:49:33.581Z,79.98
2018-02-02T09:52:01.147Z,80.36
2018-02-02T09:54:28.686Z,78.96
2018-02-02T09:56:56.266Z,78.04
2018-02-02T09:59:23.835Z,78.40
2018-02-02T10:01:51.369Z,78.46
2018-02-02T10:04:18.902Z,77.82
2018-02-02T10:06:46.506Z,77.31
2018-02-02T10:09:14.070Z,76.32
2018-02-02T10:11:41.607Z,77.12
2018-02-02T10:14:09.158Z,75.48
2018-02-02T10:16:36.699Z,73.76
2018-02-02T10:19:04.238Z,75.45
2018-02-02T10:21:31.874Z,75.17
2018-02-02T10:23:59.439Z,74.77
2018-02-02T10:26:26.984Z,73.98
2018-02-02T10:28:54.525Z,72.74
2018-02-02T10:31:22.065Z,72.18
2018-02-02T10:33:49.602Z,73.02
2018-02-02T10:36:17.137Z,71.42
2018-02-02T10:38:44.671Z,71.29
2018-02-02T10:41:12.213Z,70.97
2018-02-02T10:43:39.750Z,71.68
2018-02-02T10:46:07.296Z,69.90
2018-02-02T10:48:34.868Z,70.51
2018-02-02T10:51:02.402Z,71.86
2018-02-02T10:53:29.942Z,69.40
2018-02-02T10:55:57.479Z,67.30
2018-02-02T10:58:25.016Z,69.94
2018-02-02T11:00:58.266Z,69.48
2018-02-02T11:06:25.414Z,68.60
2018-02-02T11:08:52.954Z,69.01
2018-02-02T11:11:20.490Z,67.66
2018-02-02T11:13:48.030Z,69.92
2018-02-02T11:16:15.572Z,68.77
2018-02-02T11:18:43.111Z,68.60
2018-02-02T11:21:10.651Z,67.37
2018-02-02T11:23:38.204Z,67.08
2018-02-02T11:26:05.751Z,66.94
2018-02-02T11:28:33.296Z,66.60
2018-02-02T11:31:00.830Z,66.26
2018-02-02T11:33:28.371Z,65.09
2018-02-02T11:35:55.932Z,65.23
2018-02-02T11:38:23.493Z,64.79
2018-02-02T11:40:51.035Z,65.60
2018-02-02T11:43:18.614Z,65.53
2018-02-02T11:45:46.199Z,65.00
2018-02-02T11:48:13.733Z,66.00
2018-02-02T11:50:41.309Z,67.50
2018-02-02T11:53:08.846Z,66.87
2018-02-02T11:55:36.415Z,66.78
2018-02-02T11:58:03.961Z,66.56
2018-02-02T12:00:31.498Z,66.16
2018-02-02T12:02:59.078Z,63.25
2018-02-02T12:05:26.649Z,65.68
2018-02-02T12:07:54.223Z,64.26
2018-02-02T12:10:21.799Z,65.64
2018-02-02T12:12:49.334Z,64.39
2018-02-02T12:15:16.866Z,64.48
2018-02-02T12:17:44.406Z,64.68
2018-02-02T12:20:11.987Z,67.24
2018-02-02T12:22:56.284Z,66.98
2018-02-02T12:25:29.310Z,65.79
2018-02-02T12:31:06.387Z,65.84
2018-02-02T12:36:38.114Z,65.55
2018-02-02T12:39:05.645Z,67.29
2018-02-02T12:41:33.213Z,66.86
2018-02-02T12:44:00.830Z,67.58
2018-02-02T12:46:28.399Z,67.96
2018-02-02T12:48:58.922Z,67.48
2018-02-02T12:51:26.463Z,67.36
2018-02-02T12:53:54.005Z,67.91
2018-02-02T12:56:21.549Z,66.21
2018-02-02T12:58:49.082Z,68.06
2018-02-02T13:01:16.617Z,66.97
2018-02-02T13:03:44.154Z,67.83
2018-02-02T13:06:11.695Z,66.20
2018-02-02T13:08:39.309Z,65.96
2018-02-02T13:11:06.846Z,65.46
2018-02-02T13:13:34.475Z,67.58
2018-02-02T13:16:02.006Z,67.42
2018-02-02T13:18:29.575Z,68.77
2018-02-02T13:20:57.209Z,65.85
2018-02-02T13:23:24.782Z,69.39
2018-02-02T13:25:52.314Z,68.90
2018-02-02T13:28:19.899Z,68.05
2018-02-02T13:30:47.440Z,68.13
2018-02-02T13:33:14.983Z,67.77
2018-02-02T13:35:42.623Z,70.32
2018-02-02T13:38:10.166Z,69.95
2018-02-02T13:40:37.743Z,68.27
2018-02-02T13:43:05.282Z,69.48
2018-02-02T13:45:32.959Z,69.84
2018-02-02T13:48:00.504Z,69.80
2018-02-02T13:50:28.080Z,69.46
2018-02-02T13:52:55.619Z,69.34
2018-02-02T13:55:23.194Z,69.33
2018-02-02T13:57:50.767Z,68.10
2018-02-02T14:00:18.302Z,69.69
2018-02-02T14:02:45.852Z,69.39
2018-02-02T14:05:13.508Z,70.04
2018-02-02T14:07:41.084Z,67.40
2018-02-02T14:10:08.626Z,69.28
2018-02-02T14:12:36.199Z,69.39
2018-02-02T14:15:03.740Z,69.05
2018-02-02T14:17:31.277Z,70.32
2018-02-02T14:19:58.859Z,67.86
2018-02-02T14:22:26.395Z,67.38
2018-02-02T14:24:53.972Z,68.46
2018-02-02T14:27:21.515Z,67.75
2018-02-02T14:29:49.147Z,68.00
2018-02-02T14:32:16.684Z,69.53
2018-02-02T14:34:45.208Z,69.39
2018-02-02T14:37:12.790Z,67.51
2018-02-02T14:39:40.368Z,67.78
2018-02-02T14:42:07.903Z,68.17
2018-02-02T14:44:35.444Z,68.99
2018-02-02T14:47:03.019Z,68.82
2018-02-02T14:49:30.558Z,70.28
2018-02-02T14:51:58.141Z,71.48
2018-02-02T14:54:25.686Z,69.54
2018-02-02T14:56:53.271Z,69.57
2018-02-02T14:59:20.886Z,70.42
2018-02-02T15:01:48.414Z,71.39
2018-02-02T15:04:15.950Z,71.85
2018-02-02T15:06:43.540Z,70.47
2018-02-02T15:09:11.115Z,70.76
2018-02-02T15:11:38.651Z,70.03
2018-02-02T15:14:06.240Z,70.24
2018-02-02T15:16:33.781Z,70.86
2018-02-02T15:19:01.327Z,71.32
2018-02-02T15:21:28.872Z,69.75
2018-02-02T15:23:56.414Z,70.15
2018-02-02T15:26:23.949Z,71.08
2018-02-02T15:28:51.492Z,72.57
2018-02-02T15:31:19.040Z,72.03
2018-02-02T15:33:46.603Z,73.03
2018-02-02T15:36:14.144Z,73.80
2018-02-02T15:38:41.682Z,73.62
2018-02-02T15:41:09.230Z,74.21
2018-02-02T15:43:36.774Z,73.71
2018-02-02T15:46:04.316Z,74.65
2018-02-02T15:48:31.850Z,73.43
2018-02-02T15:50:59.386Z,74.51
2018-02-02T15:53:26.943Z,74.62
2018-02-02T15:55:54.483Z,75.98
2018-02-02T15:58:22.063Z,76.61
2018-02-02T16:00:49.615Z,75.83
2018-02-02T16:03:17.172Z,76.20
2018-02-02T16:05:44.703Z,76.11
2018-02-02T16:08:12.389Z,77.46
2018-02-02T16:10:40.038Z,77.83
2018-02-02T16:13:07.619Z,76.34
2018-02-02T16:15:35.149Z,76.06
2018-02-02T16:18:02.707Z,77.24
2018-02-02T16:20:30.241Z,76.73
2018-02-02T16:22:57.789Z,78.42
2018-02-02T16:25:25.363Z,78.24
2018-02-02T16:27:52.902Z,77.53
2018-02-02T16:30:20.537Z,79.18
2018-02-02T16:32:48.117Z,78.01
2018-02-02T16:35:15.765Z,77.89
2018-02-02T16:37:43.358Z,76.85
2018-02-02T16:40:10.960Z,78.14
2018-02-02T16:42:38.509Z,78.27
2018-02-02T16:45:06.046Z,78.57
2018-02-02T16:47:33.595Z,79.20
2018-02-02T16:50:01.135Z,80.25
2018-02-02T16:52:28.676Z,82.33
2018-02-02T16:54:56.249Z,83.76
2018-02-02T16:57:23.787Z,84.04
2018-02-02T16:59:51.321Z,85.05
2018-02-02T17:02:18.857Z,86.72
2018-02-02T17:04:46.393Z,87.09
2018-02-02T17:07:13.929Z,88.56
2018-02-02T17:09:41.502Z,88.65
2018-02-02T17:12:09.045Z,88.87
2018-02-02T17:14:36.734Z,90.08
2018-02-02T17:17:04.319Z,89.43
2018-02-02T17:19:31.862Z,89.33
2018-02-02T17:21:59.402Z,88.74
2018-02-02T17:24:27.030Z,89.61
2018-02-02T17:26:54.648Z,89.15
2018-02-02T17:29:22.181Z,89.05
2018-02-02T17:31:49.762Z,90.01
2018-02-02T17:34:17.320Z,90.09
2018-02-02T17:36:44.858Z,90.26
2018-02-02T17:39:12.452Z,89.44
2018-02-02T17:41:40.005Z,91.10
2018-02-02T17:44:07.607Z,91.11
2018-02-02T17:46:35.153Z,91.63
2018-02-02T17:49:02.692Z,92.18
2018-02-02T17:51:30.261Z,91.47
2018-02-02T17:53:57.802Z,90.94
2018-02-02T17:56:25.342Z,90.87
2018-02-02T17:58:52.880Z,91.83
2018-02-02T18:01:24.873Z,91.00
2018-02-02T18:03:52.426Z,91.05
2018-02-02T18:06:19.965Z,91.88
2018-02-02T18:08:47.543Z,91.66
2018-02-02T18:11:15.077Z,92.38
2018-02-02T18:13:42.624Z,92.95
2018-02-02T18:16:10.163Z,92.82
2018-02-02T18:18:37.745Z,92.74
2018-02-02T18:21:05.292Z,92.43
2018-02-02T18:23:32.841Z,91.76
2018-02-02T18:26:00.494Z,91.89
2018-02-02T18:28:28.058Z,92.00
2018-02-02T18:30:55.598Z,92.49
2018-02-02T18:33:23.144Z,92.98
2018-02-02T18:35:50.683Z,93.01
2018-02-02T18:38:18.223Z,93.63
2018-02-02T18:40:45.822Z,93.28
2018-02-02T18:43:13.363Z,92.09
2018-02-02T18:45:40.978Z,92.21
2018-02-02T18:48:08.514Z,92.70
2018-02-02T18:50:36.074Z,92.81
2018-02-02T18:53:03.623Z,92.82
2018-02-02T18:55:31.170Z,92.62
2018-02-02T18:57:58.705Z,92.45
2018-02-02T19:00:26.252Z,92.36
2018-02-02T19:02:53.834Z,92.80
2018-02-02T19:05:21.375Z,92.09
2018-02-02T19:07:48.994Z,92.35
2018-02-02T19:10:16.530Z,92.85
2018-02-02T19:12:44.076Z,92.17
2018-02-02T19:15:11.628Z,92.57
2018-02-02T19:17:39.264Z,91.88
2018-02-02T19:20:06.804Z,92.10
2018-02-02T19:22:34.562Z,91.81
2018-02-02T19:25:02.124Z,92.46
2018-02-02T19:27:29.671Z,92.66
2018-02-02T19:29:57.279Z,92.25
2018-02-02T19:32:24.814Z,91.80
2018-02-02T19:34:52.357Z,92.74
2018-02-02T19:37:21.610Z,91.91
2018-02-02T19:39:49.157Z,92.07
2018-02-02T19:42:16.695Z,91.47
2018-02-02T19:44:44.251Z,91.84
2018-02-02T19:47:11.794Z,92.04
2018-02-02T19:49:39.341Z,92.51
2018-02-02T19:52:06.879Z,93.01
2018-02-02T19:54:34.426Z,92.80
2018-02-02T19:57:02.311Z,92.79
2018-02-02T19:59:29.887Z,91.97
2018-02-02T20:01:57.506Z,92.00
2018-02-02T20:04:25.100Z,91.91
2018-02-02T20:06:52.693Z,92.95
2018-02-02T20:09:20.298Z,92.43
2018-02-02T20:11:47.841Z,92.00
2018-02-02T20:14:15.515Z,92.68
2018-02-02T20:16:43.056Z,92.77
2018-02-02T20:19:10.645Z,92.47
2018-02-02T20:21:38.298Z,92.72
2018-02-02T20:24:05.851Z,92.20
2018-02-02T20:26:33.419Z,92.97
2018-02-02T20:29:00.957Z,93.10
2018-02-02T20:31:28.515Z,91.79
2018-02-02T20:33:56.059Z,91.90
2018-02-02T20:36:23.627Z,93.13
2018-02-02T20:38:52.371Z,92.34
2018-02-02T20:41:19.906Z,92.20
2018-02-02T20:43:47.464Z,91.61
2018-02-02T20:46:15.008Z,92.41
2018-02-02T20:48:42.578Z,92.44
2018-02-02T20:51:10.144Z,92.90
2018-02-02T20:53:41.528Z,91.18
2018-02-02T20:56:09.071Z,91.19
2018-02-02T20:58:36.651Z,91.04
2018-02-02T21:01:05.012Z,91.54
2018-02-02T21:03:32.615Z,92.21
2018-02-02T21:06:01.233Z,90.85
2018-02-02T21:08:28.848Z,91.15
2018-02-02T21:10:56.454Z,91.25
2018-02-02T21:13:24.059Z,91.37
2018-02-02T21:15:51.677Z,91.06
2018-02-02T21:18:19.284Z,92.09
2018-02-02T21:20:46.944Z,92.70
2018-02-02T21:23:14.686Z,92.49
2018-02-02T21:25:42.417Z,91.84
2018-02-02T21:28:14.420Z,92.46
2018-02-02T21:30:42.507Z,91.51
2018-02-02T21:33:10.131Z,91.60
2018-02-02T21:35:37.735Z,91.67
2018-02-02T21:38:05.784Z,90.05
2018-02-02T21:40:33.382Z,90.76
2018-02-02T21:43:00.994Z,90.89
2018-02-02T21:45:28.785Z,91.42
2018-02-02T21:47:56.407Z,89.75
2018-02-02T21:50:23.987Z,90.87
2018-02-02T21:52:51.579Z,90.99
2018-02-02T21:55:19.174Z,91.70
2018-02-02T21:57:47.079Z,92.26
2018-02-02T22:00:14.632Z,92.56
2018-02-02T22:02:42.386Z,92.72
2018-02-02T22:05:09.996Z,92.16
2018-02-02T22:07:37.547Z,91.83
2018-02-02T22:10:06.145Z,91.56
2018-02-02T22:12:33.831Z,91.62
2018-02-02T22:15:01.373Z,92.31
2018-02-02T22:17:28.992Z,92.04
2018-02-02T22:19:56.593Z,93.14
2018-02-02T22:22:24.140Z,93.80
2018-02-02T22:24:51.682Z,92.71
2018-02-02T22:27:19.235Z,92.38
2018-02-02T22:29:47.004Z,92.53
2018-02-02T22:32:14.572Z,92.78
2018-02-02T22:34:42.129Z,92.71
2018-02-02T22:37:09.727Z,92.94
2018-02-02T22:39:37.853Z,92.76
2018-02-02T22:42:05.456Z,93.18
2018-02-02T22:44:33.049Z,93.08
2018-02-02T22:47:01.099Z,93.56
2018-02-02T22:49:28.846Z,93.13
2018-02-02T22:51:56.426Z,92.56
2018-02-02T22:54:24.072Z,92.20
2018-02-02T22:56:51.610Z,92.18
2018-02-02T22:59:19.162Z,91.36
2018-02-02T23:01:46.719Z,90.17
2018-02-02T23:04:14.562Z,90.54
2018-02-02T23:06:42.297Z,91.79
2018-02-02T23:09:09.852Z,91.13
2018-02-02T23:11:37.434Z,90.73
2018-02-02T23:14:04.982Z,90.63
2018-02-02T23:16:32.626Z,90.26
2018-02-02T23:19:00.291Z,90.24
2018-02-02T23:21:27.950Z,89.49
2018-02-02T23:23:55.523Z,89.68
2018-02-02T23:26:23.162Z,90.56
2018-02-02T23:28:50.743Z,90.18
2018-02-02T23:31:18.291Z,90.37
2018-02-02T23:33:45.927Z,90.87
2018-02-02T23:36:13.488Z,90.72
2018-02-02T23:38:41.073Z,91.42
2018-02-02T23:41:09.562Z,91.49
2018-02-02T23:43:37.144Z,91.39
2018-02-02T23:46:04.693Z,91.43
2018-02-02T23:48:32.271Z,91.83
2018-02-02T23:50:59.857Z,92.07
2018-02-02T23:53:27.418Z,92.98
2018-02-02T23:55:55.021Z,92.38
2018-02-02T23:58:22.611Z,92.11
